Terminal Aerodrome Forecast
Issued by NWS

Home | Current Version | Previous Version | Text Only | Print | Product List | Glossary On
Versions: 1 2 3 4 5 6 7 8 9 10 11 12 13 14 15 16 17 18 19 20 21
000
FTUS43 KGRR 311700
TAFLAN
TAF
KLAN 311740Z 3118/0118 24010KT P6SM OVC040
     FM312100 30005KT P6SM OVC035
     FM010800 04005KT 4SM -SN OVC015
     FM011100 04008KT 2SM -SN OVC015
     FM011300 07012G21KT 3/4SM -SN OVC008=

USA.gov is the U.S. government's official web portal to all federal, state and local government web resources and services.